sensor_id;sensor_type;location;lat;lon;timestamp;temperature;humidity
10089;DHT22;51898;49.864;8.550;2023-09-18T00:02:43;20.00;83.70
10089;DHT22;51898;49.864;8.550;2023-09-18T00:05:45;19.90;84.00
10089;DHT22;51898;49.864;8.550;2023-09-18T00:08:47;19.90;84.10
10089;DHT22;51898;49.864;8.550;2023-09-18T00:11:49;19.90;84.20
10089;DHT22;51898;49.864;8.550;2023-09-18T00:14:51;19.90;84.40
10089;DHT22;51898;49.864;8.550;2023-09-18T00:17:53;19.90;84.10
10089;DHT22;51898;49.864;8.550;2023-09-18T00:20:55;19.90;83.90
10089;DHT22;51898;49.864;8.550;2023-09-18T00:23:56;19.90;84.30
10089;DHT22;51898;49.864;8.550;2023-09-18T00:26:59;19.90;84.60
10089;DHT22;51898;49.864;8.550;2023-09-18T00:30:05;19.90;84.60
10089;DHT22;51898;49.864;8.550;2023-09-18T00:33:07;19.80;84.60
10089;DHT22;51898;49.864;8.550;2023-09-18T00:36:10;19.80;84.70
10089;DHT22;51898;49.864;8.550;2023-09-18T00:39:12;19.80;85.10
10089;DHT22;51898;49.864;8.550;2023-09-18T00:42:13;19.80;85.00
10089;DHT22;51898;49.864;8.550;2023-09-18T00:45:17;19.80;84.80
10089;DHT22;51898;49.864;8.550;2023-09-18T00:48:19;19.70;85.00
10089;DHT22;51898;49.864;8.550;2023-09-18T00:51:21;19.70;85.10
10089;DHT22;51898;49.864;8.550;2023-09-18T00:54:22;19.70;85.00
10089;DHT22;51898;49.864;8.550;2023-09-18T00:57:24;19.70;85.00
10089;DHT22;51898;49.864;8.550;2023-09-18T01:00:26;19.70;84.90
10089;DHT22;51898;49.864;8.550;2023-09-18T01:03:28;19.70;84.90
10089;DHT22;51898;49.864;8.550;2023-09-18T01:06:30;19.70;85.00
10089;DHT22;51898;49.864;8.550;2023-09-18T01:09:32;19.60;85.00
10089;DHT22;51898;49.864;8.550;2023-09-18T01:12:50;19.60;85.00
10089;DHT22;51898;49.864;8.550;2023-09-18T01:15:59;19.50;85.10
10089;DHT22;51898;49.864;8.550;2023-09-18T01:19:04;19.50;85.10
10089;DHT22;51898;49.864;8.550;2023-09-18T01:22:07;19.50;85.50
10089;DHT22;51898;49.864;8.550;2023-09-18T01:25:09;19.50;85.70
10089;DHT22;51898;49.864;8.550;2023-09-18T01:28:11;19.50;85.10
10089;DHT22;51898;49.864;8.550;2023-09-18T01:31:12;19.50;85.10
10089;DHT22;51898;49.864;8.550;2023-09-18T01:34:21;19.40;85.40
10089;DHT22;51898;49.864;8.550;2023-09-18T01:37:25;19.50;85.50
10089;DHT22;51898;49.864;8.550;2023-09-18T01:40:28;19.40;85.50
10089;DHT22;51898;49.864;8.550;2023-09-18T01:43:30;19.40;85.70
10089;DHT22;51898;49.864;8.550;2023-09-18T01:46:32;19.30;86.10
10089;DHT22;51898;49.864;8.550;2023-09-18T01:49:39;19.30;86.00
10089;DHT22;51898;49.864;8.550;2023-09-18T01:52:41;19.30;86.40
10089;DHT22;51898;49.864;8.550;2023-09-18T01:55:42;19.30;86.80
10089;DHT22;51898;49.864;8.550;2023-09-18T01:58:45;19.30;87.30
10089;DHT22;51898;49.864;8.550;2023-09-18T02:01:48;19.30;88.10
10089;DHT22;51898;49.864;8.550;2023-09-18T02:04:50;19.20;89.70
10089;DHT22;51898;49.864;8.550;2023-09-18T02:08:10;19.10;91.10
10089;DHT22;51898;49.864;8.550;2023-09-18T02:11:12;19.10;91.20
10089;DHT22;51898;49.864;8.550;2023-09-18T02:14:14;19.10;91.90
10089;DHT22;51898;49.864;8.550;2023-09-18T02:17:16;19.20;91.80
10089;DHT22;51898;49.864;8.550;2023-09-18T02:20:18;19.30;92.20
10089;DHT22;51898;49.864;8.550;2023-09-18T02:23:19;19.40;92.40
10089;DHT22;51898;49.864;8.550;2023-09-18T02:26:22;19.50;92.40
10089;DHT22;51898;49.864;8.550;2023-09-18T02:29:24;19.60;92.00
10089;DHT22;51898;49.864;8.550;2023-09-18T02:32:26;19.60;91.80
10089;DHT22;51898;49.864;8.550;2023-09-18T02:35:29;19.60;91.60
10089;DHT22;51898;49.864;8.550;2023-09-18T02:38:32;19.70;91.60
10089;DHT22;51898;49.864;8.550;2023-09-18T02:41:35;19.80;91.60
10089;DHT22;51898;49.864;8.550;2023-09-18T02:44:37;19.90;90.90
10089;DHT22;51898;49.864;8.550;2023-09-18T02:47:42;19.90;90.50
10089;DHT22;51898;49.864;8.550;2023-09-18T02:50:44;19.90;90.50
10089;DHT22;51898;49.864;8.550;2023-09-18T02:53:46;19.90;90.60
10089;DHT22;51898;49.864;8.550;2023-09-18T02:56:48;19.80;90.40
10089;DHT22;51898;49.864;8.550;2023-09-18T02:59:50;19.80;90.60
10089;DHT22;51898;49.864;8.550;2023-09-18T03:02:52;19.60;91.00
10089;DHT22;51898;49.864;8.550;2023-09-18T03:06:00;19.60;91.00
10089;DHT22;51898;49.864;8.550;2023-09-18T03:09:05;19.60;91.40
10089;DHT22;51898;49.864;8.550;2023-09-18T03:12:07;19.50;91.90
10089;DHT22;51898;49.864;8.550;2023-09-18T03:15:09;19.30;92.50
10089;DHT22;51898;49.864;8.550;2023-09-18T03:18:13;19.40;92.50
10089;DHT22;51898;49.864;8.550;2023-09-18T03:21:15;19.40;92.90
10089;DHT22;51898;49.864;8.550;2023-09-18T03:24:16;19.40;93.00
10089;DHT22;51898;49.864;8.550;2023-09-18T03:27:18;19.50;92.90
10089;DHT22;51898;49.864;8.550;2023-09-18T03:30:21;19.50;92.90
10089;DHT22;51898;49.864;8.550;2023-09-18T03:33:23;19.40;93.00
10089;DHT22;51898;49.864;8.550;2023-09-18T03:36:25;19.50;92.80
10089;DHT22;51898;49.864;8.550;2023-09-18T03:39:26;19.50;92.80
10089;DHT22;51898;49.864;8.550;2023-09-18T03:42:28;19.60;92.50
10089;DHT22;51898;49.864;8.550;2023-09-18T03:45:30;19.70;92.40
10089;DHT22;51898;49.864;8.550;2023-09-18T03:48:31;19.70;92.10
10089;DHT22;51898;49.864;8.550;2023-09-18T03:51:38;19.60;92.10
10089;DHT22;51898;49.864;8.550;2023-09-18T03:54:40;19.60;92.00
10089;DHT22;51898;49.864;8.550;2023-09-18T03:57:42;19.60;92.20
10089;DHT22;51898;49.864;8.550;2023-09-18T04:00:44;19.60;92.20
10089;DHT22;51898;49.864;8.550;2023-09-18T04:03:46;19.50;92.40
10089;DHT22;51898;49.864;8.550;2023-09-18T04:06:48;19.50;92.40
10089;DHT22;51898;49.864;8.550;2023-09-18T04:09:51;19.50;92.60
10089;DHT22;51898;49.864;8.550;2023-09-18T04:12:53;19.50;92.70
10089;DHT22;51898;49.864;8.550;2023-09-18T04:15:54;19.50;92.70
10089;DHT22;51898;49.864;8.550;2023-09-18T04:18:58;19.50;92.50
10089;DHT22;51898;49.864;8.550;2023-09-18T04:22:00;19.50;92.20
10089;DHT22;51898;49.864;8.550;2023-09-18T04:25:01;19.50;91.80
10089;DHT22;51898;49.864;8.550;2023-09-18T04:28:06;19.60;91.00
10089;DHT22;51898;49.864;8.550;2023-09-18T04:31:08;19.70;90.60
10089;DHT22;51898;49.864;8.550;2023-09-18T04:34:11;19.70;89.90
10089;DHT22;51898;49.864;8.550;2023-09-18T04:37:13;19.90;89.20
10089;DHT22;51898;49.864;8.550;2023-09-18T04:40:16;20.00;88.60
10089;DHT22;51898;49.864;8.550;2023-09-18T04:43:17;20.00;88.30
10089;DHT22;51898;49.864;8.550;2023-09-18T04:46:19;20.10;88.30
10089;DHT22;51898;49.864;8.550;2023-09-18T04:49:20;20.10;88.30
10089;DHT22;51898;49.864;8.550;2023-09-18T04:52:22;20.20;88.20
10089;DHT22;51898;49.864;8.550;2023-09-18T04:55:24;20.20;88.20
10089;DHT22;51898;49.864;8.550;2023-09-18T04:58:25;20.20;88.10
10089;DHT22;51898;49.864;8.550;2023-09-18T05:01:28;20.20;88.30
10089;DHT22;51898;49.864;8.550;2023-09-18T05:04:31;20.20;88.10
10089;DHT22;51898;49.864;8.550;2023-09-18T05:07:33;20.20;88.00
10089;DHT22;51898;49.864;8.550;2023-09-18T05:10:35;20.20;87.50
10089;DHT22;51898;49.864;8.550;2023-09-18T05:13:39;20.10;87.90
10089;DHT22;51898;49.864;8.550;2023-09-18T05:16:40;20.10;87.70
10089;DHT22;51898;49.864;8.550;2023-09-18T05:19:43;20.10;87.70
10089;DHT22;51898;49.864;8.550;2023-09-18T05:22:45;20.10;88.00
10089;DHT22;51898;49.864;8.550;2023-09-18T05:25:47;20.00;88.20
10089;DHT22;51898;49.864;8.550;2023-09-18T05:28:49;20.00;88.30
10089;DHT22;51898;49.864;8.550;2023-09-18T05:31:52;20.00;88.40
10089;DHT22;51898;49.864;8.550;2023-09-18T05:34:53;20.00;88.60
10089;DHT22;51898;49.864;8.550;2023-09-18T05:37:55;20.00;88.80
10089;DHT22;51898;49.864;8.550;2023-09-18T05:40:58;19.90;89.20
10089;DHT22;51898;49.864;8.550;2023-09-18T05:44:00;19.90;89.60
10089;DHT22;51898;49.864;8.550;2023-09-18T05:47:05;19.80;89.80
10089;DHT22;51898;49.864;8.550;2023-09-18T05:50:08;19.80;90.40
10089;DHT22;51898;49.864;8.550;2023-09-18T05:53:10;19.80;90.50
10089;DHT22;51898;49.864;8.550;2023-09-18T05:56:12;19.80;90.30
10089;DHT22;51898;49.864;8.550;2023-09-18T05:59:15;19.80;89.70
10089;DHT22;51898;49.864;8.550;2023-09-18T06:02:18;19.80;89.90
10089;DHT22;51898;49.864;8.550;2023-09-18T06:05:22;19.80;90.40
10089;DHT22;51898;49.864;8.550;2023-09-18T06:08:24;19.80;90.50
10089;DHT22;51898;49.864;8.550;2023-09-18T06:11:27;19.80;90.30
10089;DHT22;51898;49.864;8.550;2023-09-18T06:14:29;19.80;90.20
10089;DHT22;51898;49.864;8.550;2023-09-18T06:17:31;19.80;90.10
10089;DHT22;51898;49.864;8.550;2023-09-18T06:20:33;19.80;90.20
10089;DHT22;51898;49.864;8.550;2023-09-18T06:23:35;19.80;90.10
10089;DHT22;51898;49.864;8.550;2023-09-18T06:26:37;19.90;89.90
10089;DHT22;51898;49.864;8.550;2023-09-18T06:29:38;20.00;89.80
10089;DHT22;51898;49.864;8.550;2023-09-18T06:32:41;20.00;89.30
10089;DHT22;51898;49.864;8.550;2023-09-18T06:35:43;20.00;88.80
10089;DHT22;51898;49.864;8.550;2023-09-18T06:38:44;20.00;89.10
10089;DHT22;51898;49.864;8.550;2023-09-18T06:41:46;20.00;89.50
10089;DHT22;51898;49.864;8.550;2023-09-18T06:44:48;19.90;89.40
10089;DHT22;51898;49.864;8.550;2023-09-18T06:47:49;20.00;89.30
10089;DHT22;51898;49.864;8.550;2023-09-18T06:50:52;20.10;89.10
10089;DHT22;51898;49.864;8.550;2023-09-18T06:53:53;20.10;89.30
10089;DHT22;51898;49.864;8.550;2023-09-18T06:56:55;20.20;89.20
10089;DHT22;51898;49.864;8.550;2023-09-18T06:59:58;20.20;88.90
10089;DHT22;51898;49.864;8.550;2023-09-18T07:02:59;20.20;88.70
10089;DHT22;51898;49.864;8.550;2023-09-18T07:06:02;20.20;88.80
10089;DHT22;51898;49.864;8.550;2023-09-18T07:09:05;20.30;88.50
10089;DHT22;51898;49.864;8.550;2023-09-18T07:12:09;20.30;88.40
10089;DHT22;51898;49.864;8.550;2023-09-18T07:15:11;20.40;88.20
10089;DHT22;51898;49.864;8.550;2023-09-18T07:18:12;20.40;87.90
10089;DHT22;51898;49.864;8.550;2023-09-18T07:21:16;20.50;87.80
10089;DHT22;51898;49.864;8.550;2023-09-18T07:24:20;20.50;87.70
10089;DHT22;51898;49.864;8.550;2023-09-18T07:27:22;20.60;87.50
10089;DHT22;51898;49.864;8.550;2023-09-18T07:30:24;20.60;87.60
10089;DHT22;51898;49.864;8.550;2023-09-18T07:33:28;20.70;87.50
10089;DHT22;51898;49.864;8.550;2023-09-18T07:36:30;20.80;87.00
10089;DHT22;51898;49.864;8.550;2023-09-18T07:39:32;20.80;86.90
10089;DHT22;51898;49.864;8.550;2023-09-18T07:42:34;20.90;86.70
10089;DHT22;51898;49.864;8.550;2023-09-18T07:45:38;21.00;86.40
10089;DHT22;51898;49.864;8.550;2023-09-18T07:48:41;21.00;86.20
10089;DHT22;51898;49.864;8.550;2023-09-18T07:51:44;21.00;86.20
10089;DHT22;51898;49.864;8.550;2023-09-18T07:54:45;21.10;86.10
10089;DHT22;51898;49.864;8.550;2023-09-18T07:57:47;21.20;85.50
10089;DHT22;51898;49.864;8.550;2023-09-18T08:00:51;21.30;85.10
10089;DHT22;51898;49.864;8.550;2023-09-18T08:03:55;21.50;84.90
10089;DHT22;51898;49.864;8.550;2023-09-18T08:06:58;21.50;84.50
10089;DHT22;51898;49.864;8.550;2023-09-18T08:10:03;21.60;84.50
10089;DHT22;51898;49.864;8.550;2023-09-18T08:13:07;21.80;84.00
10089;DHT22;51898;49.864;8.550;2023-09-18T08:16:09;21.90;83.30
10089;DHT22;51898;49.864;8.550;2023-09-18T08:19:14;21.90;82.70
10089;DHT22;51898;49.864;8.550;2023-09-18T08:22:16;22.10;82.50
10089;DHT22;51898;49.864;8.550;2023-09-18T08:25:19;22.20;82.10
10089;DHT22;51898;49.864;8.550;2023-09-18T08:28:21;22.20;81.00
10089;DHT22;51898;49.864;8.550;2023-09-18T08:31:23;22.20;80.30
10089;DHT22;51898;49.864;8.550;2023-09-18T08:34:25;22.20;80.10
10089;DHT22;51898;49.864;8.550;2023-09-18T08:37:30;22.30;79.40
10089;DHT22;51898;49.864;8.550;2023-09-18T08:40:33;22.40;79.30
10089;DHT22;51898;49.864;8.550;2023-09-18T08:43:37;22.40;78.60
10089;DHT22;51898;49.864;8.550;2023-09-18T08:46:41;22.40;78.50
10089;DHT22;51898;49.864;8.550;2023-09-18T08:49:43;22.50;78.20
10089;DHT22;51898;49.864;8.550;2023-09-18T08:52:45;22.60;78.50
10089;DHT22;51898;49.864;8.550;2023-09-18T08:55:48;22.50;78.00
10089;DHT22;51898;49.864;8.550;2023-09-18T08:58:50;22.60;77.50
10089;DHT22;51898;49.864;8.550;2023-09-18T09:01:53;22.50;77.60
10089;DHT22;51898;49.864;8.550;2023-09-18T09:04:54;22.50;77.50
10089;DHT22;51898;49.864;8.550;2023-09-18T09:07:56;22.50;77.60
10089;DHT22;51898;49.864;8.550;2023-09-18T09:10:58;22.40;78.20
10089;DHT22;51898;49.864;8.550;2023-09-18T09:14:10;22.50;77.90
10089;DHT22;51898;49.864;8.550;2023-09-18T09:17:18;22.60;77.70
10089;DHT22;51898;49.864;8.550;2023-09-18T09:20:20;22.70;78.20
10089;DHT22;51898;49.864;8.550;2023-09-18T09:23:22;22.70;77.40
10089;DHT22;51898;49.864;8.550;2023-09-18T09:26:23;22.80;77.50
10089;DHT22;51898;49.864;8.550;2023-09-18T09:29:25;22.90;76.50
10089;DHT22;51898;49.864;8.550;2023-09-18T09:32:31;22.90;76.60
10089;DHT22;51898;49.864;8.550;2023-09-18T09:35:37;22.90;76.50
10089;DHT22;51898;49.864;8.550;2023-09-18T09:38:39;22.90;76.30
10089;DHT22;51898;49.864;8.550;2023-09-18T09:41:45;22.70;76.80
10089;DHT22;51898;49.864;8.550;2023-09-18T09:44:48;22.60;76.80
10089;DHT22;51898;49.864;8.550;2023-09-18T09:47:53;22.50;77.20
10089;DHT22;51898;49.864;8.550;2023-09-18T09:51:00;22.50;77.70
10089;DHT22;51898;49.864;8.550;2023-09-18T09:54:02;22.50;77.40
10089;DHT22;51898;49.864;8.550;2023-09-18T09:57:04;22.50;77.60
10089;DHT22;51898;49.864;8.550;2023-09-18T10:00:07;22.60;77.50
10089;DHT22;51898;49.864;8.550;2023-09-18T10:03:28;22.60;77.30
10089;DHT22;51898;49.864;8.550;2023-09-18T10:06:34;22.70;77.00
10089;DHT22;51898;49.864;8.550;2023-09-18T10:09:41;22.60;76.80
10089;DHT22;51898;49.864;8.550;2023-09-18T10:12:43;22.60;76.90
10089;DHT22;51898;49.864;8.550;2023-09-18T10:15:49;22.80;76.60
10089;DHT22;51898;49.864;8.550;2023-09-18T10:19:02;22.80;76.10
10089;DHT22;51898;49.864;8.550;2023-09-18T10:22:29;22.80;76.60
10089;DHT22;51898;49.864;8.550;2023-09-18T10:25:34;22.90;75.90
10089;DHT22;51898;49.864;8.550;2023-09-18T10:28:37;22.90;76.30
10089;DHT22;51898;49.864;8.550;2023-09-18T10:31:39;23.00;76.20
10089;DHT22;51898;49.864;8.550;2023-09-18T10:34:44;23.10;75.80
10089;DHT22;51898;49.864;8.550;2023-09-18T10:37:48;23.30;75.00
10089;DHT22;51898;49.864;8.550;2023-09-18T10:40:54;23.30;75.20
10089;DHT22;51898;49.864;8.550;2023-09-18T10:43:58;23.40;75.30
10089;DHT22;51898;49.864;8.550;2023-09-18T10:47:02;23.60;74.70
10089;DHT22;51898;49.864;8.550;2023-09-18T10:50:08;23.80;74.30
10089;DHT22;51898;49.864;8.550;2023-09-18T10:53:09;23.80;73.20
10089;DHT22;51898;49.864;8.550;2023-09-18T10:56:19;23.80;73.00
10089;DHT22;51898;49.864;8.550;2023-09-18T10:59:21;23.80;73.10
10089;DHT22;51898;49.864;8.550;2023-09-18T11:02:24;23.80;72.70
10089;DHT22;51898;49.864;8.550;2023-09-18T11:05:30;23.80;72.30
10089;DHT22;51898;49.864;8.550;2023-09-18T11:08:34;23.90;72.30
10089;DHT22;51898;49.864;8.550;2023-09-18T11:11:37;24.00;71.50
10089;DHT22;51898;49.864;8.550;2023-09-18T11:17:58;24.30;70.80
10089;DHT22;51898;49.864;8.550;2023-09-18T11:21:11;24.30;70.40
10089;DHT22;51898;49.864;8.550;2023-09-18T11:24:17;24.40;70.40
10089;DHT22;51898;49.864;8.550;2023-09-18T11:27:24;24.40;70.50
10089;DHT22;51898;49.864;8.550;2023-09-18T11:30:28;24.40;69.90
10089;DHT22;51898;49.864;8.550;2023-09-18T11:33:36;24.50;70.30
10089;DHT22;51898;49.864;8.550;2023-09-18T11:36:39;24.50;70.00
10089;DHT22;51898;49.864;8.550;2023-09-18T11:39:41;24.50;69.90
10089;DHT22;51898;49.864;8.550;2023-09-18T11:46:25;24.70;68.90
10089;DHT22;51898;49.864;8.550;2023-09-18T11:49:27;24.70;69.60
10089;DHT22;51898;49.864;8.550;2023-09-18T11:52:30;24.60;69.10
10089;DHT22;51898;49.864;8.550;2023-09-18T11:55:33;24.70;68.70
10089;DHT22;51898;49.864;8.550;2023-09-18T11:58:45;24.70;69.40
10089;DHT22;51898;49.864;8.550;2023-09-18T12:01:54;25.00;69.10
10089;DHT22;51898;49.864;8.550;2023-09-18T12:04:58;25.30;68.00
10089;DHT22;51898;49.864;8.550;2023-09-18T12:08:00;25.40;67.50
10089;DHT22;51898;49.864;8.550;2023-09-18T12:11:05;25.60;65.60
10089;DHT22;51898;49.864;8.550;2023-09-18T12:14:07;25.70;65.20
10089;DHT22;51898;49.864;8.550;2023-09-18T12:17:12;25.70;65.70
10089;DHT22;51898;49.864;8.550;2023-09-18T12:20:16;25.70;66.00
10089;DHT22;51898;49.864;8.550;2023-09-18T12:23:21;25.50;66.60
10089;DHT22;51898;49.864;8.550;2023-09-18T12:26:23;25.10;66.00
10089;DHT22;51898;49.864;8.550;2023-09-18T12:29:27;25.00;67.50
10089;DHT22;51898;49.864;8.550;2023-09-18T12:32:29;25.10;67.10
10089;DHT22;51898;49.864;8.550;2023-09-18T12:35:32;25.20;66.60
10089;DHT22;51898;49.864;8.550;2023-09-18T12:38:34;25.30;67.00
10089;DHT22;51898;49.864;8.550;2023-09-18T12:41:38;25.70;66.10
10089;DHT22;51898;49.864;8.550;2023-09-18T12:44:40;25.90;65.10
10089;DHT22;51898;49.864;8.550;2023-09-18T12:47:42;25.80;65.10
10089;DHT22;51898;49.864;8.550;2023-09-18T12:50:45;25.80;65.20
10089;DHT22;51898;49.864;8.550;2023-09-18T12:53:47;25.80;65.00
10089;DHT22;51898;49.864;8.550;2023-09-18T12:56:48;25.80;65.90
10089;DHT22;51898;49.864;8.550;2023-09-18T12:59:50;25.80;65.20
10089;DHT22;51898;49.864;8.550;2023-09-18T13:02:54;25.80;64.40
10089;DHT22;51898;49.864;8.550;2023-09-18T13:06:09;25.70;65.40
10089;DHT22;51898;49.864;8.550;2023-09-18T13:09:18;25.60;65.60
10089;DHT22;51898;49.864;8.550;2023-09-18T13:12:24;25.70;65.20
10089;DHT22;51898;49.864;8.550;2023-09-18T13:15:27;25.70;64.90
10089;DHT22;51898;49.864;8.550;2023-09-18T13:18:29;25.70;64.60
10089;DHT22;51898;49.864;8.550;2023-09-18T13:21:31;25.80;65.10
10089;DHT22;51898;49.864;8.550;2023-09-18T13:24:33;25.90;63.90
10089;DHT22;51898;49.864;8.550;2023-09-18T13:27:35;26.00;63.70
10089;DHT22;51898;49.864;8.550;2023-09-18T13:30:39;25.80;64.10
10089;DHT22;51898;49.864;8.550;2023-09-18T13:33:41;25.70;64.20
10089;DHT22;51898;49.864;8.550;2023-09-18T13:36:46;25.60;64.60
10089;DHT22;51898;49.864;8.550;2023-09-18T13:39:48;25.40;65.60
10089;DHT22;51898;49.864;8.550;2023-09-18T13:42:49;25.30;65.80
10089;DHT22;51898;49.864;8.550;2023-09-18T13:45:51;25.10;65.90
10089;DHT22;51898;49.864;8.550;2023-09-18T13:48:53;25.00;65.70
10089;DHT22;51898;49.864;8.550;2023-09-18T13:51:55;24.90;65.90
10089;DHT22;51898;49.864;8.550;2023-09-18T13:54:58;24.90;66.40
10089;DHT22;51898;49.864;8.550;2023-09-18T13:58:00;24.90;66.70
10089;DHT22;51898;49.864;8.550;2023-09-18T14:01:05;24.90;66.20
10089;DHT22;51898;49.864;8.550;2023-09-18T14:04:07;25.00;66.40
10089;DHT22;51898;49.864;8.550;2023-09-18T14:07:10;25.10;66.30
10089;DHT22;51898;49.864;8.550;2023-09-18T14:10:13;25.50;65.80
10089;DHT22;51898;49.864;8.550;2023-09-18T14:13:15;25.80;65.30
10089;DHT22;51898;49.864;8.550;2023-09-18T14:16:17;25.80;64.40
10089;DHT22;51898;49.864;8.550;2023-09-18T14:19:19;26.00;64.00
10089;DHT22;51898;49.864;8.550;2023-09-18T14:22:21;26.10;63.00
10089;DHT22;51898;49.864;8.550;2023-09-18T14:25:24;26.20;62.90
10089;DHT22;51898;49.864;8.550;2023-09-18T14:28:26;26.10;62.20
10089;DHT22;51898;49.864;8.550;2023-09-18T14:31:29;26.00;63.20
10089;DHT22;51898;49.864;8.550;2023-09-18T14:34:30;25.90;62.90
10089;DHT22;51898;49.864;8.550;2023-09-18T14:37:36;25.90;62.50
10089;DHT22;51898;49.864;8.550;2023-09-18T14:40:41;25.90;62.30
10089;DHT22;51898;49.864;8.550;2023-09-18T14:43:44;25.90;62.00
10089;DHT22;51898;49.864;8.550;2023-09-18T14:46:46;26.00;62.20
10089;DHT22;51898;49.864;8.550;2023-09-18T14:49:48;25.90;62.70
10089;DHT22;51898;49.864;8.550;2023-09-18T14:52:50;25.90;63.10
10089;DHT22;51898;49.864;8.550;2023-09-18T14:55:54;25.80;62.80
10089;DHT22;51898;49.864;8.550;2023-09-18T14:58:56;25.90;61.10
10089;DHT22;51898;49.864;8.550;2023-09-18T15:01:59;26.00;61.30
10089;DHT22;51898;49.864;8.550;2023-09-18T15:05:01;26.00;60.70
10089;DHT22;51898;49.864;8.550;2023-09-18T15:08:03;26.00;60.30
10089;DHT22;51898;49.864;8.550;2023-09-18T15:11:05;26.00;60.30
10089;DHT22;51898;49.864;8.550;2023-09-18T15:14:06;26.10;59.10
10089;DHT22;51898;49.864;8.550;2023-09-18T15:17:11;26.10;59.00
10089;DHT22;51898;49.864;8.550;2023-09-18T15:20:13;26.00;59.40
10089;DHT22;51898;49.864;8.550;2023-09-18T15:23:18;25.80;60.10
10089;DHT22;51898;49.864;8.550;2023-09-18T15:26:20;25.50;61.50
10089;DHT22;51898;49.864;8.550;2023-09-18T15:29:22;25.30;62.20
10089;DHT22;51898;49.864;8.550;2023-09-18T15:32:24;25.10;62.70
10089;DHT22;51898;49.864;8.550;2023-09-18T15:35:27;24.90;63.40
10089;DHT22;51898;49.864;8.550;2023-09-18T15:38:29;24.70;63.80
10089;DHT22;51898;49.864;8.550;2023-09-18T15:41:33;24.70;64.20
10089;DHT22;51898;49.864;8.550;2023-09-18T15:44:36;24.90;63.90
10089;DHT22;51898;49.864;8.550;2023-09-18T15:47:38;25.20;63.30
10089;DHT22;51898;49.864;8.550;2023-09-18T15:50:40;25.40;63.20
10089;DHT22;51898;49.864;8.550;2023-09-18T15:53:44;25.50;62.70
10089;DHT22;51898;49.864;8.550;2023-09-18T15:56:48;25.60;62.00
10089;DHT22;51898;49.864;8.550;2023-09-18T15:59:51;25.80;61.50
10089;DHT22;51898;49.864;8.550;2023-09-18T16:02:52;25.80;60.90
10089;DHT22;51898;49.864;8.550;2023-09-18T16:05:54;25.80;60.20
10089;DHT22;51898;49.864;8.550;2023-09-18T16:08:57;25.70;61.30
10089;DHT22;51898;49.864;8.550;2023-09-18T16:12:01;25.60;61.60
10089;DHT22;51898;49.864;8.550;2023-09-18T16:15:04;25.50;61.30
10089;DHT22;51898;49.864;8.550;2023-09-18T16:18:06;25.20;62.40
10089;DHT22;51898;49.864;8.550;2023-09-18T16:21:08;25.00;62.90
10089;DHT22;51898;49.864;8.550;2023-09-18T16:24:10;24.80;63.80
10089;DHT22;51898;49.864;8.550;2023-09-18T16:27:12;24.60;64.20
10089;DHT22;51898;49.864;8.550;2023-09-18T16:30:15;24.40;64.70
10089;DHT22;51898;49.864;8.550;2023-09-18T16:33:17;24.20;64.90
10089;DHT22;51898;49.864;8.550;2023-09-18T16:36:18;24.10;65.30
10089;DHT22;51898;49.864;8.550;2023-09-18T16:39:21;24.00;66.10
10089;DHT22;51898;49.864;8.550;2023-09-18T16:42:27;24.00;66.40
10089;DHT22;51898;49.864;8.550;2023-09-18T16:45:28;23.90;66.30
10089;DHT22;51898;49.864;8.550;2023-09-18T16:48:31;23.80;66.30
10089;DHT22;51898;49.864;8.550;2023-09-18T16:51:33;23.70;66.60
10089;DHT22;51898;49.864;8.550;2023-09-18T16:54:34;23.50;66.60
10089;DHT22;51898;49.864;8.550;2023-09-18T16:57:36;23.50;66.90
10089;DHT22;51898;49.864;8.550;2023-09-18T17:00:38;23.40;66.80
10089;DHT22;51898;49.864;8.550;2023-09-18T17:03:40;23.40;67.50
10089;DHT22;51898;49.864;8.550;2023-09-18T17:06:43;23.30;67.50
10089;DHT22;51898;49.864;8.550;2023-09-18T17:09:44;23.20;67.90
10089;DHT22;51898;49.864;8.550;2023-09-18T17:12:46;23.10;68.10
10089;DHT22;51898;49.864;8.550;2023-09-18T17:15:48;23.00;68.40
10089;DHT22;51898;49.864;8.550;2023-09-18T17:18:51;22.90;68.40
10089;DHT22;51898;49.864;8.550;2023-09-18T17:21:57;22.80;68.60
10089;DHT22;51898;49.864;8.550;2023-09-18T17:25:04;22.80;69.20
10089;DHT22;51898;49.864;8.550;2023-09-18T17:28:12;22.70;70.00
10089;DHT22;51898;49.864;8.550;2023-09-18T17:31:16;22.60;71.10
10089;DHT22;51898;49.864;8.550;2023-09-18T17:34:19;22.50;71.70
10089;DHT22;51898;49.864;8.550;2023-09-18T17:37:20;22.40;71.60
10089;DHT22;51898;49.864;8.550;2023-09-18T17:40:22;22.30;71.90
10089;DHT22;51898;49.864;8.550;2023-09-18T17:43:24;22.30;72.60
10089;DHT22;51898;49.864;8.550;2023-09-18T17:46:26;22.20;73.30
10089;DHT22;51898;49.864;8.550;2023-09-18T17:49:28;22.10;73.60
10089;DHT22;51898;49.864;8.550;2023-09-18T17:52:30;22.00;73.90
10089;DHT22;51898;49.864;8.550;2023-09-18T17:55:31;22.00;74.40
10089;DHT22;51898;49.864;8.550;2023-09-18T17:58:34;21.90;74.30
10089;DHT22;51898;49.864;8.550;2023-09-18T18:01:35;21.80;74.70
10089;DHT22;51898;49.864;8.550;2023-09-18T18:04:37;21.80;75.60
10089;DHT22;51898;49.864;8.550;2023-09-18T18:07:39;21.70;76.10
10089;DHT22;51898;49.864;8.550;2023-09-18T18:10:42;21.60;76.30
10089;DHT22;51898;49.864;8.550;2023-09-18T18:13:45;21.50;76.70
10089;DHT22;51898;49.864;8.550;2023-09-18T18:16:46;21.40;76.50
10089;DHT22;51898;49.864;8.550;2023-09-18T18:19:48;21.40;76.80
10089;DHT22;51898;49.864;8.550;2023-09-18T18:22:51;21.30;77.00
10089;DHT22;51898;49.864;8.550;2023-09-18T18:25:53;21.40;77.60
10089;DHT22;51898;49.864;8.550;2023-09-18T18:28:55;21.30;77.80
10089;DHT22;51898;49.864;8.550;2023-09-18T18:31:58;21.20;78.30
10089;DHT22;51898;49.864;8.550;2023-09-18T18:35:00;21.10;78.40
10089;DHT22;51898;49.864;8.550;2023-09-18T18:38:02;21.10;78.60
10089;DHT22;51898;49.864;8.550;2023-09-18T18:41:06;21.00;79.10
10089;DHT22;51898;49.864;8.550;2023-09-18T18:44:08;20.90;79.50
10089;DHT22;51898;49.864;8.550;2023-09-18T18:47:10;20.90;79.50
10089;DHT22;51898;49.864;8.550;2023-09-18T18:50:13;20.70;79.40
10089;DHT22;51898;49.864;8.550;2023-09-18T18:53:15;20.70;78.60
10089;DHT22;51898;49.864;8.550;2023-09-18T18:56:17;20.60;77.90
10089;DHT22;51898;49.864;8.550;2023-09-18T18:59:19;20.50;78.30
10089;DHT22;51898;49.864;8.550;2023-09-18T19:02:21;20.40;78.30
10089;DHT22;51898;49.864;8.550;2023-09-18T19:05:24;20.30;78.30
10089;DHT22;51898;49.864;8.550;2023-09-18T19:08:29;20.30;77.50
10089;DHT22;51898;49.864;8.550;2023-09-18T19:11:31;20.20;76.80
10089;DHT22;51898;49.864;8.550;2023-09-18T19:14:33;20.00;76.40
10089;DHT22;51898;49.864;8.550;2023-09-18T19:17:35;19.90;76.60
10089;DHT22;51898;49.864;8.550;2023-09-18T19:20:37;19.80;76.40
10089;DHT22;51898;49.864;8.550;2023-09-18T19:23:39;19.70;75.50